createdAt,value
2022-08-25T00:00:17.970Z,22.11
2022-08-25T00:02:55.223Z,22.14
2022-08-25T00:05:29.358Z,22.05
2022-08-25T00:08:01.982Z,22.19
2022-08-25T00:10:32.129Z,22.20
2022-08-25T00:13:01.051Z,22.13
2022-08-25T00:15:31.307Z,22.15
2022-08-25T00:18:01.014Z,21.97
2022-08-25T00:20:31.118Z,22.08
2022-08-25T00:22:59.790Z,22.23
2022-08-25T00:25:28.461Z,22.16
2022-08-25T00:27:59.131Z,22.27
2022-08-25T00:30:28.083Z,22.22
2022-08-25T00:32:57.439Z,22.04
2022-08-25T00:35:27.343Z,22.08
2022-08-25T00:37:56.463Z,22.08
2022-08-25T00:40:27.809Z,22.09
2022-08-25T00:42:58.177Z,21.94
2022-08-25T00:45:27.550Z,22.04
2022-08-25T00:47:59.920Z,22.00
2022-08-25T00:50:29.461Z,22.05
2022-08-25T00:53:00.396Z,22.03
2022-08-25T00:55:31.547Z,21.98
2022-08-25T00:58:06.470Z,21.88
2022-08-25T01:00:39.385Z,21.78
2022-08-25T01:03:08.405Z,21.78
2022-08-25T01:05:37.869Z,21.76
2022-08-25T01:08:07.809Z,22.04
2022-08-25T01:10:41.535Z,22.02
2022-08-25T01:13:16.870Z,22.01
2022-08-25T01:15:46.362Z,22.02
2022-08-25T01:18:15.658Z,21.99
2022-08-25T01:20:44.409Z,22.03
2022-08-25T01:23:14.754Z,21.82
2022-08-25T01:25:48.655Z,21.98
2022-08-25T01:28:18.040Z,21.86
2022-08-25T01:30:47.434Z,21.90
2022-08-25T01:33:17.235Z,21.91
2022-08-25T01:35:46.741Z,21.87
2022-08-25T01:38:17.520Z,21.80
2022-08-25T01:40:46.515Z,21.95
2022-08-25T01:43:22.897Z,21.81
2022-08-25T01:45:51.910Z,21.75
2022-08-25T01:48:20.719Z,21.65
2022-08-25T01:50:49.354Z,21.73
2022-08-25T01:53:24.833Z,21.78
2022-08-25T01:55:55.393Z,21.80
2022-08-25T01:58:26.524Z,21.81
2022-08-25T02:00:57.283Z,21.82
2022-08-25T02:03:26.535Z,21.76
2022-08-25T02:05:56.033Z,21.74
2022-08-25T02:08:26.355Z,21.87
2022-08-25T02:10:58.488Z,21.93
2022-08-25T02:13:31.421Z,21.88
2022-08-25T02:16:01.984Z,21.60
2022-08-25T02:18:31.032Z,21.61
2022-08-25T02:20:59.667Z,21.71
2022-08-25T02:23:29.964Z,21.68
2022-08-25T02:25:58.607Z,21.67
2022-08-25T02:28:27.385Z,21.68
2022-08-25T02:31:01.516Z,21.80
2022-08-25T02:33:30.493Z,21.80
2022-08-25T02:36:00.321Z,21.82
2022-08-25T02:38:30.805Z,21.89
2022-08-25T02:41:01.072Z,21.82
2022-08-25T02:43:30.149Z,21.70
2022-08-25T02:45:59.933Z,21.75
2022-08-25T02:48:28.603Z,21.72
2022-08-25T02:51:01.164Z,21.81
2022-08-25T02:53:31.412Z,21.72
2022-08-25T02:56:00.170Z,21.79
2022-08-25T02:58:29.140Z,21.51
2022-08-25T03:01:00.423Z,21.61
2022-08-25T03:03:29.536Z,21.58
2022-08-25T03:05:58.515Z,21.57
2022-08-25T03:08:27.313Z,21.63
2022-08-25T03:10:57.293Z,21.46
2022-08-25T03:13:26.195Z,21.51
2022-08-25T03:15:55.314Z,21.59
2022-08-25T03:18:24.748Z,21.62
2022-08-25T03:20:54.140Z,21.75
2022-08-25T03:23:22.878Z,21.64
2022-08-25T03:26:09.344Z,21.59
2022-08-25T03:28:39.659Z,21.78
2022-08-25T03:31:09.049Z,21.74
2022-08-25T03:33:38.724Z,21.44
2022-08-25T03:36:08.662Z,21.46
2022-08-25T03:38:38.404Z,21.45
2022-08-25T03:41:17.518Z,21.56
2022-08-25T03:43:48.188Z,21.46
2022-08-25T03:46:20.411Z,21.51
2022-08-25T03:48:49.234Z,21.48
2022-08-25T03:51:22.474Z,21.47
2022-08-25T03:53:51.769Z,21.52
2022-08-25T03:56:20.790Z,21.59
2022-08-25T03:58:51.169Z,21.47
2022-08-25T04:01:20.270Z,21.44
2022-08-25T04:03:49.288Z,21.51
2022-08-25T04:06:19.886Z,21.66
2022-08-25T04:08:48.922Z,21.61
2022-08-25T04:11:21.333Z,21.66
2022-08-25T04:13:52.981Z,21.67
2022-08-25T04:16:24.409Z,21.55
2022-08-25T04:18:54.162Z,21.36
2022-08-25T04:21:24.008Z,21.28
2022-08-25T04:23:53.871Z,21.51
2022-08-25T04:26:24.062Z,21.46
2022-08-25T04:28:55.183Z,21.61
2022-08-25T04:31:23.890Z,21.61
2022-08-25T04:33:53.081Z,21.48
2022-08-25T04:36:22.662Z,21.74
2022-08-25T04:38:51.658Z,21.45
2022-08-25T04:41:24.298Z,21.59
2022-08-25T04:43:54.357Z,21.73
2022-08-25T04:46:27.288Z,21.69
2022-08-25T04:48:57.348Z,21.69
2022-08-25T04:51:30.098Z,21.73
2022-08-25T04:54:01.931Z,21.93
2022-08-25T04:56:31.125Z,21.76
2022-08-25T04:59:04.431Z,21.90
2022-08-25T05:01:33.336Z,21.87
2022-08-25T05:04:04.236Z,22.06
2022-08-25T05:06:33.472Z,22.17
2022-08-25T05:09:03.516Z,22.24
2022-08-25T05:11:34.584Z,22.27
2022-08-25T05:14:05.622Z,22.38
2022-08-25T05:16:35.179Z,22.38
2022-08-25T05:19:04.824Z,22.39
2022-08-25T05:21:33.506Z,22.36
2022-08-25T05:24:03.348Z,22.53
2022-08-25T05:26:33.057Z,22.62
2022-08-25T05:29:05.070Z,22.77
2022-08-25T05:31:38.466Z,22.86
2022-08-25T05:34:12.194Z,23.46
2022-08-25T05:36:43.454Z,23.84
2022-08-25T05:39:12.531Z,23.86
2022-08-25T05:41:43.492Z,24.33
2022-08-25T05:44:19.081Z,24.93
2022-08-25T05:46:51.243Z,25.26
2022-08-25T05:49:20.246Z,25.60
2022-08-25T05:51:48.926Z,25.71
2022-08-25T05:54:17.573Z,25.67
2022-08-25T05:56:46.585Z,25.43
2022-08-25T05:59:16.624Z,25.21
2022-08-25T06:02:02.942Z,24.88
2022-08-25T06:04:32.461Z,24.67
2022-08-25T06:07:01.161Z,24.64
2022-08-25T06:09:29.866Z,24.44
2022-08-25T06:11:58.899Z,24.58
2022-08-25T06:14:28.891Z,24.51
2022-08-25T06:16:57.496Z,24.52
2022-08-25T06:19:26.447Z,24.57
2022-08-25T06:21:56.360Z,24.53
2022-08-25T06:24:25.852Z,24.75
2022-08-25T06:26:54.909Z,24.54
2022-08-25T06:29:24.301Z,24.70
2022-08-25T06:31:54.412Z,24.86
2022-08-25T06:34:24.301Z,24.83
2022-08-25T06:36:55.702Z,24.76
2022-08-25T06:39:25.093Z,24.83
2022-08-25T06:41:54.260Z,24.92
2022-08-25T06:44:23.503Z,24.78
2022-08-25T06:46:52.509Z,24.99
2022-08-25T06:49:22.950Z,24.90
2022-08-25T06:51:51.928Z,25.03
2022-08-25T06:54:20.670Z,25.09
2022-08-25T06:56:49.652Z,25.17
2022-08-25T06:59:18.967Z,25.38
2022-08-25T07:01:49.716Z,25.43
2022-08-25T07:04:19.248Z,25.52
2022-08-25T07:06:49.238Z,25.55
2022-08-25T07:09:18.408Z,25.57
2022-08-25T07:11:47.415Z,25.70
2022-08-25T07:14:17.432Z,25.81
2022-08-25T07:16:49.607Z,25.77
2022-08-25T07:19:21.468Z,25.95
2022-08-25T07:21:55.192Z,26.13
2022-08-25T07:24:24.399Z,26.03
2022-08-25T07:26:53.614Z,26.13
2022-08-25T07:29:32.367Z,26.23
2022-08-25T07:32:02.613Z,26.27
2022-08-25T07:37:49.274Z,26.47
2022-08-25T07:40:22.492Z,26.45
2022-08-25T07:42:56.777Z,26.44
2022-08-25T07:45:30.766Z,26.22
2022-08-25T07:48:03.506Z,26.40
2022-08-25T07:50:33.499Z,26.80
2022-08-25T07:53:03.777Z,26.90
2022-08-25T07:55:32.816Z,26.93
2022-08-25T07:58:01.401Z,27.00
2022-08-25T08:00:33.292Z,26.96
2022-08-25T08:03:03.952Z,26.98
2022-08-25T08:05:32.882Z,27.39
2022-08-25T08:08:03.500Z,27.09
2022-08-25T08:13:21.118Z,27.11
2022-08-25T08:15:50.163Z,27.35
2022-08-25T08:18:18.866Z,27.49
2022-08-25T08:20:48.435Z,27.18
2022-08-25T08:23:19.060Z,27.17
2022-08-25T08:25:48.237Z,27.78
2022-08-25T08:28:17.120Z,27.63
2022-08-25T08:30:53.191Z,27.76
2022-08-25T08:33:24.397Z,27.78
2022-08-25T08:36:00.603Z,27.84
2022-08-25T08:38:36.544Z,27.98
2022-08-25T08:41:33.946Z,28.11
2022-08-25T08:44:13.757Z,28.01
2022-08-25T08:46:47.425Z,28.05
2022-08-25T08:49:23.128Z,27.70
2022-08-25T08:52:00.480Z,27.99
2022-08-25T08:54:35.453Z,28.35
2022-08-25T08:57:09.831Z,28.16
2022-08-25T08:59:45.064Z,28.61
2022-08-25T09:02:39.514Z,27.96
2022-08-25T09:05:15.104Z,27.79
2022-08-25T09:07:48.372Z,28.19
2022-08-25T09:10:19.711Z,28.33
2022-08-25T09:12:59.168Z,28.33
2022-08-25T09:15:51.165Z,28.37
2022-08-25T09:18:28.923Z,28.48
2022-08-25T09:21:09.598Z,28.68
2022-08-25T09:23:47.560Z,28.78
2022-08-25T09:26:27.392Z,28.73
2022-08-25T09:29:03.282Z,28.70
2022-08-25T09:31:38.792Z,28.76
2022-08-25T09:34:20.367Z,28.65
2022-08-25T09:36:52.903Z,28.94
2022-08-25T09:39:23.461Z,29.05
2022-08-25T09:41:56.139Z,29.09
2022-08-25T09:44:26.459Z,28.97
2022-08-25T09:46:57.106Z,29.04
2022-08-25T09:49:40.304Z,28.92
2022-08-25T09:52:37.447Z,29.39
2022-08-25T09:55:28.183Z,29.39
2022-08-25T09:57:59.263Z,29.65
2022-08-25T10:00:30.780Z,29.23
2022-08-25T10:03:07.823Z,29.62
2022-08-25T10:05:49.426Z,29.83
2022-08-25T10:08:31.527Z,29.80
2022-08-25T10:11:01.927Z,29.97
2022-08-25T10:13:36.069Z,29.71
2022-08-25T10:16:07.996Z,29.65
2022-08-25T10:19:02.068Z,29.95
2022-08-25T10:21:30.788Z,30.24
2022-08-25T10:24:01.713Z,30.04
2022-08-25T10:26:38.948Z,30.05
2022-08-25T10:29:15.873Z,30.40
2022-08-25T10:31:49.457Z,30.14
2022-08-25T10:34:25.730Z,30.19
2022-08-25T10:37:11.613Z,29.76
2022-08-25T10:39:43.168Z,30.13
2022-08-25T10:42:26.032Z,30.45
2022-08-25T10:45:25.797Z,30.69
2022-08-25T10:48:20.986Z,30.65
2022-08-25T10:50:54.795Z,30.76
2022-08-25T10:53:29.674Z,30.63
2022-08-25T10:56:07.114Z,30.69
2022-08-25T10:59:01.796Z,30.93
2022-08-25T11:01:44.138Z,31.29
2022-08-25T11:04:15.669Z,31.23
2022-08-25T11:06:53.125Z,30.85
2022-08-25T11:09:26.840Z,30.69
2022-08-25T11:11:59.422Z,31.15
2022-08-25T11:14:34.547Z,31.38
2022-08-25T11:17:08.577Z,31.42
2022-08-25T11:19:39.472Z,31.58
2022-08-25T11:22:14.364Z,31.60
2022-08-25T11:24:55.093Z,31.77
2022-08-25T11:27:25.502Z,31.72
2022-08-25T11:30:01.824Z,31.74
2022-08-25T11:32:35.522Z,32.06
2022-08-25T11:35:07.971Z,31.87
2022-08-25T11:37:42.863Z,31.70
2022-08-25T11:40:50.198Z,32.03
2022-08-25T11:43:35.828Z,32.44
2022-08-25T11:46:28.340Z,32.34
2022-08-25T11:49:07.206Z,32.38
2022-08-25T11:51:42.631Z,32.38
2022-08-25T11:54:19.956Z,32.61
2022-08-25T11:56:58.485Z,33.01
2022-08-25T12:00:05.025Z,32.94
2022-08-25T12:02:39.185Z,32.90
2022-08-25T12:05:12.189Z,33.11
2022-08-25T12:08:22.772Z,33.30
2022-08-25T12:10:59.290Z,33.26
2022-08-25T12:13:40.791Z,32.84
2022-08-25T12:16:47.946Z,33.21
2022-08-25T12:19:30.340Z,33.27
2022-08-25T12:22:38.852Z,33.13
2022-08-25T12:25:11.676Z,33.75
2022-08-25T12:27:45.069Z,34.00
2022-08-25T12:30:20.785Z,33.70
2022-08-25T12:33:04.865Z,33.89
2022-08-25T12:35:41.061Z,34.51
2022-08-25T12:38:13.807Z,34.50
2022-08-25T12:40:55.924Z,34.62
2022-08-25T12:43:33.233Z,34.81
2022-08-25T12:46:34.776Z,34.95
2022-08-25T12:49:05.648Z,34.70
2022-08-25T12:51:54.624Z,34.61
2022-08-25T12:54:34.233Z,34.70
2022-08-25T12:57:07.217Z,34.58
2022-08-25T12:59:38.055Z,34.64
2022-08-25T13:02:51.961Z,34.36
2022-08-25T13:05:42.694Z,34.95
2022-08-25T13:08:37.099Z,35.09
2022-08-25T13:11:12.027Z,35.23
2022-08-25T13:13:47.591Z,35.04
2022-08-25T13:16:19.074Z,33.76
2022-08-25T13:18:51.691Z,33.84
2022-08-25T13:21:24.330Z,34.10
2022-08-25T13:24:01.590Z,33.68
2022-08-25T13:26:36.082Z,33.78
2022-08-25T13:29:14.573Z,33.47
2022-08-25T13:31:56.418Z,33.31
2022-08-25T13:34:30.454Z,33.58
2022-08-25T13:37:25.671Z,33.57
2022-08-25T13:40:12.356Z,33.89
2022-08-25T13:42:42.454Z,33.98
2022-08-25T13:45:15.814Z,34.40
2022-08-25T13:47:46.131Z,34.84
2022-08-25T13:50:22.798Z,35.22
2022-08-25T13:52:57.342Z,35.49
2022-08-25T13:55:38.181Z,35.77
2022-08-25T13:58:24.830Z,35.89
2022-08-25T14:01:23.186Z,35.45
2022-08-25T14:04:25.211Z,35.84
2022-08-25T14:07:14.272Z,36.09
2022-08-25T14:09:48.423Z,36.48
2022-08-25T14:12:39.534Z,36.76
2022-08-25T14:15:13.690Z,36.47
2022-08-25T14:17:48.013Z,36.06
2022-08-25T14:20:27.242Z,36.11
2022-08-25T14:22:58.264Z,35.73
2022-08-25T14:25:30.308Z,35.97
2022-08-25T14:28:08.295Z,35.89
2022-08-25T14:30:49.385Z,35.53
2022-08-25T14:33:22.360Z,35.90
2022-08-25T14:35:55.269Z,36.34
2022-08-25T14:38:24.405Z,36.56
2022-08-25T14:40:53.922Z,36.69
2022-08-25T14:43:24.135Z,36.20
2022-08-25T14:46:02.591Z,36.21
2022-08-25T14:48:34.336Z,36.46
2022-08-25T14:51:05.453Z,36.17
2022-08-25T14:53:34.259Z,35.96
2022-08-25T14:56:08.399Z,36.02
2022-08-25T14:58:50.928Z,35.44
2022-08-25T15:01:28.914Z,35.10
2022-08-25T15:04:02.241Z,34.78
2022-08-25T15:06:33.453Z,34.57
2022-08-25T15:09:11.612Z,34.19
2022-08-25T15:11:42.344Z,34.30
2022-08-25T15:14:12.439Z,34.16
2022-08-25T15:16:42.354Z,34.14
2022-08-25T15:19:14.619Z,34.03
2022-08-25T15:21:47.525Z,34.06
2022-08-25T15:24:17.991Z,33.84
2022-08-25T15:29:28.005Z,33.41
2022-08-25T15:31:57.452Z,33.20
2022-08-25T15:34:26.170Z,33.10
2022-08-25T15:36:56.225Z,32.97
2022-08-25T15:39:25.311Z,32.87
2022-08-25T15:41:54.204Z,32.76
2022-08-25T15:44:28.990Z,32.47
2022-08-25T15:46:59.288Z,32.49
2022-08-25T15:49:29.731Z,32.21
2022-08-25T15:52:02.231Z,32.12
2022-08-25T15:54:32.192Z,32.34
2022-08-25T15:57:01.134Z,31.96
2022-08-25T15:59:30.821Z,32.06
2022-08-25T16:02:00.474Z,32.35
2022-08-25T16:04:30.218Z,32.27
2022-08-25T16:07:01.586Z,32.08
2022-08-25T16:09:31.319Z,32.08
2022-08-25T16:12:05.418Z,31.71
2022-08-25T16:14:38.097Z,31.71
2022-08-25T16:17:07.189Z,31.68
2022-08-25T16:19:38.310Z,31.70
2022-08-25T16:22:11.247Z,31.47
2022-08-25T16:24:45.058Z,31.54
2022-08-25T16:27:14.788Z,31.40
2022-08-25T16:29:45.590Z,31.42
2022-08-25T16:32:15.644Z,31.37
2022-08-25T16:34:44.771Z,31.49
2022-08-25T16:37:14.786Z,31.48
2022-08-25T16:39:46.148Z,31.40
2022-08-25T16:42:15.129Z,31.29
2022-08-25T16:44:44.178Z,31.32
2022-08-25T16:47:14.381Z,31.15
2022-08-25T16:49:46.912Z,31.21
2022-08-25T16:52:34.703Z,30.97
2022-08-25T16:55:15.203Z,30.98
2022-08-25T16:57:47.538Z,30.90
2022-08-25T17:00:19.311Z,30.69
2022-08-25T17:02:48.674Z,30.80
2022-08-25T17:05:18.224Z,30.59
2022-08-25T17:08:08.746Z,30.58
2022-08-25T17:10:38.885Z,30.54
2022-08-25T17:13:08.254Z,30.43
2022-08-25T17:15:40.832Z,30.47
2022-08-25T17:18:11.196Z,30.44
2022-08-25T17:20:42.118Z,30.34
2022-08-25T17:23:14.093Z,30.13
2022-08-25T17:25:43.485Z,30.30
2022-08-25T17:28:13.190Z,30.28
2022-08-25T17:30:43.248Z,30.09
2022-08-25T17:33:15.173Z,30.07
2022-08-25T17:35:45.752Z,30.08
2022-08-25T17:38:17.098Z,30.17
2022-08-25T17:40:48.103Z,30.09
2022-08-25T17:43:17.487Z,30.05
2022-08-25T17:45:47.887Z,30.04
2022-08-25T17:48:17.317Z,30.00
2022-08-25T17:50:46.979Z,29.63
2022-08-25T17:53:17.411Z,29.67
2022-08-25T17:55:47.539Z,29.74
2022-08-25T17:58:17.293Z,29.95
2022-08-25T18:00:47.078Z,29.44
2022-08-25T18:03:15.955Z,29.61
2022-08-25T18:05:45.189Z,29.39
2022-08-25T18:08:16.124Z,29.39
2022-08-25T18:10:48.938Z,29.24
2022-08-25T18:13:17.997Z,29.18
2022-08-25T18:15:46.977Z,29.02
2022-08-25T18:18:16.412Z,29.23
2022-08-25T18:20:46.628Z,28.96
2022-08-25T18:23:17.709Z,29.00
2022-08-25T18:25:49.449Z,29.00
2022-08-25T18:28:18.460Z,28.86
2022-08-25T18:30:47.305Z,28.83
2022-08-25T18:33:18.929Z,28.82
2022-08-25T18:35:47.961Z,28.78
2022-08-25T18:38:34.485Z,28.71
2022-08-25T18:41:07.836Z,28.49
2022-08-25T18:43:37.039Z,28.30
2022-08-25T18:46:06.404Z,28.41
2022-08-25T18:48:36.972Z,28.42
2022-08-25T18:51:07.731Z,28.30
2022-08-25T18:53:50.047Z,28.17
2022-08-25T18:56:22.452Z,28.29
2022-08-25T18:58:51.090Z,28.21
2022-08-25T19:01:20.779Z,28.12
2022-08-25T19:03:50.316Z,28.14
2022-08-25T19:06:19.495Z,28.25
2022-08-25T19:08:50.029Z,27.86
2022-08-25T19:11:22.184Z,28.10
2022-08-25T19:13:53.294Z,27.99
2022-08-25T19:16:34.832Z,28.06
2022-08-25T19:19:06.389Z,28.09
2022-08-25T19:21:36.077Z,27.74
2022-08-25T19:24:05.387Z,27.76
2022-08-25T19:26:37.352Z,27.57
2022-08-25T19:29:12.179Z,27.40
2022-08-25T19:31:43.255Z,27.38
2022-08-25T19:34:17.885Z,27.47
2022-08-25T19:36:48.116Z,27.58
2022-08-25T19:39:17.168Z,27.75
2022-08-25T19:41:47.232Z,27.77
2022-08-25T19:44:18.991Z,27.82
2022-08-25T19:46:47.801Z,27.74
2022-08-25T19:49:22.981Z,27.66
2022-08-25T19:51:53.115Z,27.69
2022-08-25T19:54:24.817Z,27.62
2022-08-25T19:56:55.477Z,27.63
2022-08-25T19:59:40.518Z,27.78
2022-08-25T20:02:15.448Z,27.80
2022-08-25T20:04:49.671Z,27.79
2022-08-25T20:07:19.512Z,27.49
2022-08-25T20:09:48.752Z,27.59
2022-08-25T20:12:18.057Z,27.47
2022-08-25T20:14:49.276Z,27.50
2022-08-25T20:17:23.798Z,27.52
2022-08-25T20:19:55.472Z,27.51
2022-08-25T20:22:26.385Z,27.44
2022-08-25T20:24:57.953Z,27.44
2022-08-25T20:27:31.612Z,27.29
2022-08-25T20:30:03.260Z,27.41
2022-08-25T20:32:33.683Z,27.44
2022-08-25T20:35:02.847Z,27.42
2022-08-25T20:37:34.085Z,27.28
2022-08-25T20:40:03.210Z,27.33
2022-08-25T20:42:32.391Z,27.30
2022-08-25T20:45:02.522Z,27.27
2022-08-25T20:47:31.663Z,27.28
2022-08-25T20:50:05.968Z,27.30
2022-08-25T20:52:36.399Z,27.18
2022-08-25T20:55:08.778Z,26.89
2022-08-25T20:57:38.026Z,26.79
2022-08-25T21:00:10.084Z,26.94
2022-08-25T21:02:39.145Z,26.95
2022-08-25T21:05:08.792Z,26.90
2022-08-25T21:07:37.436Z,26.95
2022-08-25T21:10:10.379Z,26.95
2022-08-25T21:12:39.652Z,26.84
2022-08-25T21:15:11.682Z,26.86
2022-08-25T21:17:40.890Z,26.92
2022-08-25T21:20:10.886Z,26.66
2022-08-25T21:22:39.909Z,26.68
2022-08-25T21:25:12.481Z,26.63
2022-08-25T21:27:41.385Z,26.52
2022-08-25T21:30:14.808Z,26.56
2022-08-25T21:32:52.702Z,26.44
2022-08-25T21:35:22.975Z,26.54
2022-08-25T21:37:53.139Z,26.49
2022-08-25T21:40:23.065Z,26.38
2022-08-25T21:42:52.724Z,26.39
2022-08-25T21:45:22.759Z,26.41
2022-08-25T21:47:51.738Z,26.49
2022-08-25T21:50:22.127Z,26.16
2022-08-25T21:52:54.692Z,26.29
2022-08-25T21:55:24.131Z,26.27
2022-08-25T21:57:54.690Z,26.20
2022-08-25T22:00:25.263Z,26.30
2022-08-25T22:02:54.034Z,26.15
2022-08-25T22:05:23.660Z,26.24
2022-08-25T22:07:52.303Z,26.06
2022-08-25T22:10:21.707Z,26.06
2022-08-25T22:12:51.729Z,26.07
2022-08-25T22:15:20.560Z,26.06
2022-08-25T22:17:54.816Z,26.01
2022-08-25T22:20:23.466Z,25.95
2022-08-25T22:22:54.352Z,25.91
2022-08-25T22:25:23.825Z,26.03
2022-08-25T22:27:56.627Z,25.95
2022-08-25T22:30:27.677Z,26.02
2022-08-25T22:33:00.162Z,25.86
2022-08-25T22:35:29.999Z,25.78
2022-08-25T22:37:59.267Z,25.65
2022-08-25T22:40:28.288Z,25.80
2022-08-25T22:42:57.759Z,25.71
2022-08-25T22:45:27.876Z,25.71
2022-08-25T22:47:57.022Z,25.67
2022-08-25T22:50:27.453Z,25.61
2022-08-25T22:52:56.455Z,25.63
2022-08-25T22:55:25.210Z,25.52
2022-08-25T22:57:57.189Z,25.50
2022-08-25T23:00:25.978Z,25.55
2022-08-25T23:02:54.667Z,25.49
2022-08-25T23:05:23.681Z,25.53
2022-08-25T23:07:56.191Z,25.67
2022-08-25T23:10:25.861Z,25.34
2022-08-25T23:12:54.496Z,25.48
2022-08-25T23:15:23.290Z,25.32
2022-08-25T23:17:52.194Z,25.43
2022-08-25T23:20:45.728Z,25.36
2022-08-25T23:23:16.164Z,25.34
2022-08-25T23:25:45.091Z,25.16
2022-08-25T23:28:14.202Z,25.31
2022-08-25T23:30:44.953Z,25.32
2022-08-25T23:33:26.945Z,25.21
2022-08-25T23:36:00.301Z,25.13
2022-08-25T23:38:30.788Z,25.17
2022-08-25T23:40:59.598Z,25.33
2022-08-25T23:43:28.207Z,25.21
2022-08-25T23:45:57.270Z,25.21
2022-08-25T23:48:26.659Z,25.31
2022-08-25T23:50:55.326Z,25.23
2022-08-25T23:53:24.374Z,25.28
2022-08-25T23:55:54.700Z,25.21
2022-08-25T23:58:25.200Z,24.99
